createdAt,value
2022-10-08T00:01:01.939Z,89.19
2022-10-08T00:03:36.658Z,89.71
2022-10-08T00:06:09.594Z,90.60
2022-10-08T00:08:43.789Z,91.30
2022-10-08T00:11:22.392Z,91.70
2022-10-08T00:13:53.040Z,92.15
2022-10-08T00:16:24.449Z,92.36
2022-10-08T00:18:58.575Z,92.87
2022-10-08T00:21:35.683Z,93.17
2022-10-08T00:24:06.978Z,92.91
2022-10-08T00:26:43.544Z,92.97
2022-10-08T00:29:16.864Z,92.96
2022-10-08T00:31:49.798Z,92.93
2022-10-08T00:34:24.907Z,93.10
2022-10-08T00:37:01.466Z,93.24
2022-10-08T00:39:30.737Z,93.11
2022-10-08T00:42:00.293Z,93.24
2022-10-08T00:44:56.640Z,93.22
2022-10-08T00:47:41.826Z,93.39
2022-10-08T00:50:21.198Z,93.46
2022-10-08T00:52:55.332Z,93.78
2022-10-08T00:55:28.152Z,94.32
2022-10-08T00:58:02.514Z,94.30
2022-10-08T01:00:33.439Z,94.41
2022-10-08T01:03:03.964Z,94.28
2022-10-08T01:05:49.639Z,94.70
2022-10-08T01:08:35.128Z,94.60
2022-10-08T01:11:17.337Z,95.13
2022-10-08T01:14:03.457Z,94.94
2022-10-08T01:16:44.797Z,94.81
2022-10-08T01:19:48.604Z,94.73
2022-10-08T01:22:41.849Z,94.50
2022-10-08T01:25:36.360Z,94.19
2022-10-08T01:28:16.065Z,93.64
2022-10-08T01:30:55.424Z,93.33
2022-10-08T01:33:33.339Z,92.99
2022-10-08T01:36:11.128Z,92.77
2022-10-08T01:38:47.258Z,92.84
2022-10-08T01:41:20.548Z,92.26
2022-10-08T01:44:00.666Z,91.68
2022-10-08T01:46:34.731Z,91.77
2022-10-08T01:49:11.128Z,91.56
2022-10-08T01:51:50.554Z,91.50
2022-10-08T01:54:25.662Z,91.34
2022-10-08T01:56:58.896Z,91.44
2022-10-08T01:59:36.984Z,91.44
2022-10-08T02:02:18.561Z,91.96
2022-10-08T02:04:47.877Z,92.60
2022-10-08T02:07:20.559Z,93.18
2022-10-08T02:09:52.751Z,93.90
2022-10-08T02:12:24.121Z,94.64
2022-10-08T02:14:58.219Z,95.32
2022-10-08T02:17:41.867Z,96.16
2022-10-08T02:20:22.015Z,96.63
2022-10-08T02:23:00.488Z,96.93
2022-10-08T02:25:38.785Z,97.32
2022-10-08T02:28:19.637Z,97.86
2022-10-08T02:30:59.120Z,98.39
2022-10-08T02:33:37.478Z,98.61
2022-10-08T02:36:09.937Z,98.90
2022-10-08T02:38:46.475Z,99.53
2022-10-08T02:41:18.979Z,99.94
2022-10-08T02:43:53.144Z,100.00
2022-10-08T02:46:28.651Z,100.00
2022-10-08T02:49:04.193Z,100.00
2022-10-08T02:51:40.836Z,100.00
2022-10-08T02:54:11.050Z,100.00
2022-10-08T02:56:48.217Z,100.00
2022-10-08T02:59:20.955Z,100.00
2022-10-08T03:02:00.029Z,100.00
2022-10-08T03:04:37.542Z,100.00
2022-10-08T03:07:07.732Z,100.00
2022-10-08T03:09:40.862Z,100.00
2022-10-08T03:12:09.846Z,100.00
2022-10-08T03:14:43.431Z,100.00
2022-10-08T03:17:20.977Z,100.00
2022-10-08T03:19:49.791Z,100.00
2022-10-08T03:22:18.938Z,100.00
2022-10-08T03:24:47.741Z,100.00
2022-10-08T03:27:16.715Z,100.00
2022-10-08T03:29:45.600Z,100.00
2022-10-08T03:32:16.377Z,100.00
2022-10-08T03:34:45.228Z,100.00
2022-10-08T03:37:14.303Z,100.00
2022-10-08T03:39:44.014Z,100.00
2022-10-08T03:42:13.610Z,100.00
2022-10-08T03:44:44.360Z,100.00
2022-10-08T03:47:16.028Z,100.00
2022-10-08T03:49:44.846Z,100.00
2022-10-08T03:52:13.906Z,100.00
2022-10-08T03:54:43.456Z,100.00
2022-10-08T03:57:12.243Z,100.00
2022-10-08T03:59:44.094Z,100.00
2022-10-08T04:02:14.703Z,100.00
2022-10-08T04:04:43.979Z,100.00
2022-10-08T04:07:12.646Z,100.00
2022-10-08T04:09:47.670Z,100.00
2022-10-08T04:12:16.339Z,100.00
2022-10-08T04:14:49.314Z,100.00
2022-10-08T04:17:20.432Z,100.00
2022-10-08T04:19:50.202Z,100.00
2022-10-08T04:22:18.765Z,100.00
2022-10-08T04:24:48.455Z,100.00
2022-10-08T04:27:17.628Z,100.00
2022-10-08T04:29:51.439Z,100.00
2022-10-08T04:32:22.143Z,100.00
2022-10-08T04:34:52.866Z,100.00
2022-10-08T04:37:23.849Z,100.00
2022-10-08T04:39:53.130Z,100.00
2022-10-08T04:42:22.346Z,100.00
2022-10-08T04:44:54.400Z,100.00
2022-10-08T04:47:24.764Z,100.00
2022-10-08T04:49:54.564Z,100.00
2022-10-08T04:52:23.387Z,100.00
2022-10-08T04:54:54.949Z,100.00
2022-10-08T04:57:23.930Z,100.00
2022-10-08T05:00:16.910Z,100.00
2022-10-08T05:02:44.684Z,100.00
2022-10-08T05:05:15.158Z,100.00
2022-10-08T05:07:44.260Z,100.00
2022-10-08T05:10:12.988Z,100.00
2022-10-08T05:12:41.575Z,100.00
2022-10-08T05:15:12.275Z,100.00
2022-10-08T05:17:41.071Z,100.00
2022-10-08T05:20:11.649Z,100.00
2022-10-08T05:22:42.227Z,100.00
2022-10-08T05:25:11.657Z,100.00
2022-10-08T05:27:41.097Z,100.00
2022-10-08T05:30:12.179Z,100.00
2022-10-08T05:32:40.716Z,100.00
2022-10-08T05:35:11.497Z,100.00
2022-10-08T05:37:40.290Z,100.00
2022-10-08T05:40:12.850Z,100.00
2022-10-08T05:42:41.507Z,100.00
2022-10-08T05:45:12.448Z,100.00
2022-10-08T05:47:41.992Z,100.00
2022-10-08T05:50:12.830Z,100.00
2022-10-08T05:52:41.875Z,100.00
2022-10-08T05:55:13.692Z,100.00
2022-10-08T05:57:42.355Z,100.00
2022-10-08T06:00:13.818Z,100.00
2022-10-08T06:02:42.701Z,100.00
2022-10-08T06:05:13.416Z,100.00
2022-10-08T06:10:34.868Z,100.00
2022-10-08T06:13:03.515Z,100.00
2022-10-08T06:15:32.731Z,100.00
2022-10-08T06:18:02.799Z,100.00
2022-10-08T06:20:33.025Z,100.00
2022-10-08T06:23:01.752Z,100.00
2022-10-08T06:25:30.436Z,100.00
2022-10-08T06:27:59.310Z,100.00
2022-10-08T06:30:28.304Z,100.00
2022-10-08T06:32:57.134Z,100.00
2022-10-08T06:35:26.729Z,100.00
2022-10-08T06:37:57.072Z,100.00
2022-10-08T06:40:26.187Z,100.00
2022-10-08T06:42:55.094Z,100.00
2022-10-08T06:45:23.649Z,100.00
2022-10-08T06:47:52.303Z,100.00
2022-10-08T06:50:21.496Z,100.00
2022-10-08T06:52:50.367Z,100.00
2022-10-08T06:55:21.633Z,100.00
2022-10-08T06:57:50.495Z,100.00
2022-10-08T07:00:21.771Z,100.00
2022-10-08T07:02:50.946Z,100.00
2022-10-08T07:05:20.580Z,100.00
2022-10-08T07:07:49.429Z,100.00
2022-10-08T07:10:22.689Z,100.00
2022-10-08T07:12:51.421Z,99.62
2022-10-08T07:15:20.394Z,99.57
2022-10-08T07:17:52.007Z,99.96
2022-10-08T07:20:20.700Z,100.00
2022-10-08T07:22:52.425Z,100.00
2022-10-08T07:25:22.754Z,100.00
2022-10-08T07:27:51.987Z,100.00
2022-10-08T07:30:21.713Z,100.00
2022-10-08T07:32:54.008Z,100.00
2022-10-08T07:35:22.844Z,100.00
2022-10-08T07:37:51.693Z,100.00
2022-10-08T07:40:22.418Z,100.00
2022-10-08T07:42:52.032Z,100.00
2022-10-08T07:45:20.739Z,100.00
2022-10-08T07:47:49.454Z,100.00
2022-10-08T07:50:18.326Z,100.00
2022-10-08T07:52:47.071Z,100.00
2022-10-08T07:55:36.077Z,98.45
2022-10-08T07:58:05.552Z,96.96
2022-10-08T08:00:36.068Z,95.54
2022-10-08T08:03:05.257Z,95.90
2022-10-08T08:05:37.823Z,95.76
2022-10-08T08:08:06.662Z,95.75
2022-10-08T08:10:38.662Z,95.78
2022-10-08T08:13:07.922Z,95.95
2022-10-08T08:15:40.608Z,96.70
2022-10-08T08:18:09.312Z,96.86
2022-10-08T08:20:38.157Z,97.08
2022-10-08T08:23:07.245Z,96.89
2022-10-08T08:25:38.493Z,96.44
2022-10-08T08:28:07.447Z,95.26
2022-10-08T08:30:38.322Z,94.47
2022-10-08T08:33:07.061Z,94.85
2022-10-08T08:35:35.780Z,94.84
2022-10-08T08:38:04.474Z,94.62
2022-10-08T08:40:33.138Z,93.49
2022-10-08T08:43:03.523Z,93.24
2022-10-08T08:45:46.805Z,92.43
2022-10-08T08:48:23.341Z,93.00
2022-10-08T08:50:57.016Z,92.82
2022-10-08T08:53:26.222Z,92.04
2022-10-08T08:56:02.996Z,90.44
2022-10-08T08:58:43.464Z,88.67
2022-10-08T09:01:27.225Z,87.02
2022-10-08T09:04:08.202Z,83.91
2022-10-08T09:06:40.474Z,82.03
2022-10-08T09:09:26.802Z,80.69
2022-10-08T09:11:57.306Z,79.47
2022-10-08T09:14:44.652Z,78.91
2022-10-08T09:17:19.065Z,76.33
2022-10-08T09:19:50.016Z,74.90
2022-10-08T09:22:26.405Z,72.46
2022-10-08T09:25:01.464Z,71.46
2022-10-08T09:27:47.085Z,74.85
2022-10-08T09:30:37.981Z,78.64
2022-10-08T09:33:29.712Z,82.18
2022-10-08T09:35:59.753Z,83.83
2022-10-08T09:38:38.431Z,84.52
2022-10-08T09:41:22.315Z,84.18
2022-10-08T09:44:14.674Z,83.59
2022-10-08T09:46:45.722Z,84.38
2022-10-08T09:49:32.659Z,84.12
2022-10-08T09:52:17.070Z,83.42
2022-10-08T09:54:52.037Z,81.88
2022-10-08T09:57:25.905Z,80.61
2022-10-08T09:59:59.187Z,80.87
2022-10-08T10:02:35.374Z,81.40
2022-10-08T10:05:07.708Z,81.46
2022-10-08T10:07:43.274Z,82.07
2022-10-08T10:10:23.815Z,82.58
2022-10-08T10:13:02.780Z,81.67
2022-10-08T10:15:39.166Z,80.71
2022-10-08T10:18:15.302Z,77.63
2022-10-08T10:20:49.618Z,73.98
2022-10-08T10:23:26.591Z,72.37
2022-10-08T10:26:06.302Z,70.92
2022-10-08T10:28:43.894Z,71.04
2022-10-08T10:31:20.850Z,69.52
2022-10-08T10:33:59.795Z,73.71
2022-10-08T10:36:35.543Z,81.77
2022-10-08T10:39:19.073Z,88.54
2022-10-08T10:41:57.369Z,93.19
2022-10-08T10:44:38.462Z,96.81
2022-10-08T10:47:11.789Z,99.97
2022-10-08T10:49:45.136Z,100.00
2022-10-08T10:52:52.755Z,100.00
2022-10-08T10:55:29.574Z,100.00
2022-10-08T10:58:41.878Z,100.00
2022-10-08T11:01:28.772Z,100.00
2022-10-08T11:04:10.234Z,100.00
2022-10-08T11:07:07.580Z,100.00
2022-10-08T11:09:51.377Z,100.00
2022-10-08T11:12:36.539Z,100.00
2022-10-08T11:15:24.513Z,100.00
2022-10-08T11:18:17.284Z,100.00
2022-10-08T11:21:17.881Z,100.00
2022-10-08T11:24:20.204Z,100.00
2022-10-08T11:27:00.667Z,100.00
2022-10-08T11:29:39.541Z,100.00
2022-10-08T11:32:15.562Z,100.00
2022-10-08T11:34:54.675Z,100.00
2022-10-08T11:37:34.005Z,100.00
2022-10-08T11:40:21.335Z,100.00
2022-10-08T11:43:03.250Z,100.00
2022-10-08T11:45:38.329Z,100.00
2022-10-08T11:48:37.893Z,100.00
2022-10-08T11:51:33.907Z,98.40
2022-10-08T11:54:12.754Z,93.83
2022-10-08T11:56:47.447Z,90.45
2022-10-08T11:59:39.667Z,88.03
2022-10-08T12:02:28.130Z,85.68
2022-10-08T12:05:01.107Z,84.25
2022-10-08T12:07:35.748Z,82.40
2022-10-08T12:10:34.559Z,79.75
2022-10-08T12:13:32.279Z,77.53
2022-10-08T12:16:06.998Z,75.54
2022-10-08T12:18:54.033Z,73.88
2022-10-08T12:21:55.948Z,74.19
2022-10-08T12:25:00.497Z,73.22
2022-10-08T12:27:37.937Z,72.82
2022-10-08T12:30:12.364Z,71.36
2022-10-08T12:32:58.304Z,71.73
2022-10-08T12:35:32.471Z,72.04
2022-10-08T12:38:38.604Z,71.01
2022-10-08T12:41:22.986Z,71.04
2022-10-08T12:44:01.914Z,71.34
2022-10-08T12:46:44.147Z,71.90
2022-10-08T12:49:26.277Z,72.02
2022-10-08T12:52:06.946Z,72.65
2022-10-08T12:54:36.366Z,74.31
2022-10-08T12:57:13.051Z,75.77
2022-10-08T12:59:44.596Z,77.79
2022-10-08T13:02:38.700Z,79.58
2022-10-08T13:05:25.326Z,80.60
2022-10-08T13:07:54.385Z,81.28
2022-10-08T13:10:26.775Z,81.13
2022-10-08T13:13:03.638Z,81.22
2022-10-08T13:15:34.291Z,80.34
2022-10-08T13:18:15.887Z,80.13
2022-10-08T13:20:58.615Z,78.28
2022-10-08T13:23:35.541Z,76.37
2022-10-08T13:26:04.760Z,75.69
2022-10-08T13:28:59.482Z,76.50
2022-10-08T13:31:25.411Z,77.52
2022-10-08T13:33:56.234Z,78.20
2022-10-08T13:36:25.220Z,76.72
2022-10-08T13:38:54.599Z,72.45
2022-10-08T13:41:32.853Z,71.31
2022-10-08T13:44:06.404Z,71.87
2022-10-08T13:46:35.682Z,68.06
2022-10-08T13:49:20.846Z,66.69
2022-10-08T13:51:51.256Z,65.16
2022-10-08T13:54:26.341Z,64.47
2022-10-08T13:56:55.353Z,64.60
2022-10-08T13:59:30.260Z,64.61
2022-10-08T14:01:59.627Z,65.86
2022-10-08T14:04:31.814Z,66.57
2022-10-08T14:07:01.719Z,66.81
2022-10-08T14:09:31.912Z,67.14
2022-10-08T14:12:05.396Z,69.60
2022-10-08T14:14:34.674Z,69.20
2022-10-08T14:17:03.643Z,68.97
2022-10-08T14:19:33.935Z,69.50
2022-10-08T14:22:02.669Z,68.64
2022-10-08T14:24:31.387Z,66.87
2022-10-08T14:27:02.993Z,67.10
2022-10-08T14:29:35.658Z,67.18
2022-10-08T14:32:05.324Z,67.01
2022-10-08T14:34:35.931Z,67.31
2022-10-08T14:37:06.501Z,66.83
2022-10-08T14:39:35.186Z,66.48
2022-10-08T14:42:04.517Z,66.54
2022-10-08T14:44:33.230Z,66.52
2022-10-08T14:47:06.651Z,66.51
2022-10-08T14:49:37.158Z,68.84
2022-10-08T14:52:06.850Z,70.39
2022-10-08T14:54:38.919Z,71.67
2022-10-08T14:57:07.697Z,73.47
2022-10-08T14:59:40.126Z,75.34
2022-10-08T15:02:14.235Z,76.80
2022-10-08T15:04:44.942Z,78.01
2022-10-08T15:07:14.175Z,79.37
2022-10-08T15:09:43.272Z,79.14
2022-10-08T15:12:12.012Z,75.74
2022-10-08T15:14:41.041Z,72.25
2022-10-08T15:17:11.127Z,70.69
2022-10-08T15:19:40.064Z,70.51
2022-10-08T15:22:11.594Z,70.92
2022-10-08T15:24:40.269Z,69.88
2022-10-08T15:27:09.217Z,69.60
2022-10-08T15:29:38.481Z,69.64
2022-10-08T15:32:07.431Z,71.07
2022-10-08T15:34:37.448Z,73.87
2022-10-08T15:37:08.107Z,76.52
2022-10-08T15:39:38.423Z,78.14
2022-10-08T15:42:07.937Z,77.67
2022-10-08T15:44:36.938Z,75.83
2022-10-08T15:47:12.294Z,75.14
2022-10-08T15:49:44.020Z,76.05
2022-10-08T15:52:17.692Z,76.52
2022-10-08T15:54:50.193Z,76.78
2022-10-08T15:57:20.114Z,75.47
2022-10-08T15:59:48.882Z,75.05
2022-10-08T16:02:18.840Z,74.42
2022-10-08T16:04:49.068Z,73.68
2022-10-08T16:07:18.729Z,74.46
2022-10-08T16:09:48.850Z,75.51
2022-10-08T16:12:17.823Z,76.72
2022-10-08T16:14:46.552Z,78.65
2022-10-08T16:17:15.521Z,80.81
2022-10-08T16:19:44.412Z,82.50
2022-10-08T16:22:16.351Z,84.06
2022-10-08T16:24:45.250Z,85.26
2022-10-08T16:27:16.943Z,86.23
2022-10-08T16:29:45.927Z,85.54
2022-10-08T16:32:16.584Z,84.72
2022-10-08T16:34:53.266Z,84.46
2022-10-08T16:37:22.534Z,84.29
2022-10-08T16:39:51.659Z,83.81
2022-10-08T16:42:22.133Z,83.50
2022-10-08T16:44:50.930Z,83.71
2022-10-08T16:47:20.886Z,84.12
2022-10-08T16:49:49.649Z,84.91
2022-10-08T16:52:20.833Z,85.18
2022-10-08T16:54:54.651Z,85.16
2022-10-08T16:57:25.740Z,84.76
2022-10-08T16:59:54.669Z,84.14
2022-10-08T17:02:25.945Z,84.53
2022-10-08T17:04:55.925Z,85.05
2022-10-08T17:07:25.471Z,84.83
2022-10-08T17:09:54.843Z,85.18
2022-10-08T17:12:27.049Z,85.53
2022-10-08T17:14:55.658Z,84.89
2022-10-08T17:17:26.629Z,83.37
2022-10-08T17:19:55.517Z,82.77
2022-10-08T17:22:27.093Z,82.23
2022-10-08T17:24:55.878Z,81.93
2022-10-08T17:27:29.989Z,81.87
2022-10-08T17:29:58.661Z,81.58
2022-10-08T17:32:28.941Z,81.30
2022-10-08T17:34:58.710Z,81.47
2022-10-08T17:37:31.258Z,81.81
2022-10-08T17:40:00.148Z,82.36
2022-10-08T17:42:32.513Z,82.86
2022-10-08T17:45:01.023Z,83.41
2022-10-08T17:47:32.142Z,83.65
2022-10-08T17:50:00.856Z,84.09
2022-10-08T17:52:32.037Z,84.58
2022-10-08T17:55:00.612Z,85.10
2022-10-08T17:57:31.397Z,85.24
2022-10-08T18:00:00.356Z,85.53
2022-10-08T18:02:29.783Z,85.87
2022-10-08T18:04:58.456Z,85.95
2022-10-08T18:07:27.288Z,86.26
2022-10-08T18:09:56.211Z,86.54
2022-10-08T18:12:25.050Z,86.32
2022-10-08T18:14:55.153Z,86.81
2022-10-08T18:17:24.208Z,87.36
2022-10-08T18:19:53.348Z,87.83
2022-10-08T18:22:23.193Z,87.23
2022-10-08T18:24:52.049Z,86.03
2022-10-08T18:27:21.052Z,85.69
2022-10-08T18:29:49.595Z,85.32
2022-10-08T18:32:20.257Z,85.30
2022-10-08T18:34:49.792Z,85.70
2022-10-08T18:37:20.915Z,85.05
2022-10-08T18:39:49.953Z,85.05
2022-10-08T18:42:19.164Z,85.66
2022-10-08T18:44:47.885Z,86.19
2022-10-08T18:47:16.836Z,87.02
2022-10-08T18:49:49.292Z,87.71
2022-10-08T18:52:21.543Z,88.73
2022-10-08T18:54:50.683Z,89.46
2022-10-08T18:57:19.767Z,90.23
2022-10-08T18:59:54.065Z,90.46
2022-10-08T19:02:23.033Z,90.68
2022-10-08T19:04:53.641Z,90.99
2022-10-08T19:07:22.512Z,90.90
2022-10-08T19:09:51.056Z,90.16
2022-10-08T19:12:20.193Z,90.35
2022-10-08T19:14:50.342Z,90.65
2022-10-08T19:17:18.910Z,91.13
2022-10-08T19:19:47.803Z,91.54
2022-10-08T19:22:18.011Z,91.88
2022-10-08T19:24:46.662Z,92.24
2022-10-08T19:27:15.540Z,92.40
2022-10-08T19:29:44.591Z,92.88
2022-10-08T19:32:13.358Z,93.26
2022-10-08T19:34:42.936Z,94.15
2022-10-08T19:37:11.762Z,94.64
2022-10-08T19:39:44.182Z,95.16
2022-10-08T19:42:13.364Z,95.45
2022-10-08T19:44:42.245Z,95.19
2022-10-08T19:47:10.940Z,94.98
2022-10-08T19:49:40.057Z,95.64
2022-10-08T19:52:08.724Z,96.38
2022-10-08T19:54:37.410Z,97.18
2022-10-08T19:57:07.697Z,98.16
2022-10-08T19:59:36.422Z,99.46
2022-10-08T20:02:05.096Z,100.00
2022-10-08T20:04:34.712Z,100.00
2022-10-08T20:07:06.262Z,100.00
2022-10-08T20:09:36.351Z,100.00
2022-10-08T20:12:06.814Z,100.00
2022-10-08T20:14:35.785Z,100.00
2022-10-08T20:17:04.755Z,100.00
2022-10-08T20:19:33.921Z,100.00
2022-10-08T20:22:02.683Z,100.00
2022-10-08T20:24:35.517Z,100.00
2022-10-08T20:27:04.054Z,100.00
2022-10-08T20:29:34.583Z,100.00
2022-10-08T20:32:03.521Z,100.00
2022-10-08T20:34:32.405Z,100.00
2022-10-08T20:37:03.545Z,100.00
2022-10-08T20:39:32.588Z,100.00
2022-10-08T20:42:01.527Z,100.00
2022-10-08T20:44:30.296Z,100.00
2022-10-08T20:47:00.908Z,100.00
2022-10-08T20:49:30.860Z,100.00
2022-10-08T20:51:59.883Z,100.00
2022-10-08T20:54:29.011Z,100.00
2022-10-08T20:56:57.707Z,100.00
2022-10-08T20:59:27.051Z,100.00
2022-10-08T21:01:56.569Z,100.00
2022-10-08T21:04:27.041Z,100.00
2022-10-08T21:06:55.874Z,100.00
2022-10-08T21:09:24.669Z,100.00
2022-10-08T21:11:54.313Z,100.00
2022-10-08T21:14:24.443Z,100.00
2022-10-08T21:16:54.383Z,100.00
2022-10-08T21:19:23.580Z,100.00
2022-10-08T21:21:54.444Z,100.00
2022-10-08T21:24:23.125Z,100.00
2022-10-08T21:26:51.929Z,100.00
2022-10-08T21:29:21.117Z,100.00
2022-10-08T21:31:49.903Z,100.00
2022-10-08T21:34:18.957Z,100.00
2022-10-08T21:36:47.779Z,100.00
2022-10-08T21:39:21.530Z,100.00
2022-10-08T21:41:52.589Z,100.00
2022-10-08T21:44:21.337Z,100.00
2022-10-08T21:46:50.479Z,100.00
2022-10-08T21:49:23.013Z,100.00
2022-10-08T21:51:52.532Z,100.00
2022-10-08T21:54:22.668Z,100.00
2022-10-08T21:56:51.480Z,100.00
2022-10-08T21:59:20.293Z,100.00
2022-10-08T22:01:51.106Z,100.00
2022-10-08T22:04:22.902Z,100.00
2022-10-08T22:06:54.295Z,100.00
2022-10-08T22:09:27.552Z,100.00
2022-10-08T22:11:58.398Z,100.00
2022-10-08T22:14:28.344Z,100.00
2022-10-08T22:16:57.030Z,100.00
2022-10-08T22:19:25.665Z,100.00
2022-10-08T22:21:54.467Z,100.00
2022-10-08T22:24:24.825Z,100.00
2022-10-08T22:26:53.672Z,100.00
2022-10-08T22:29:22.392Z,100.00
2022-10-08T22:31:51.199Z,100.00
2022-10-08T22:34:19.951Z,100.00
2022-10-08T22:36:48.572Z,100.00
2022-10-08T22:39:17.429Z,100.00
2022-10-08T22:41:47.434Z,100.00
2022-10-08T22:44:16.232Z,100.00
2022-10-08T22:46:44.889Z,100.00
2022-10-08T22:49:14.013Z,100.00
2022-10-08T22:51:44.033Z,100.00
2022-10-08T22:54:15.717Z,100.00
2022-10-08T22:56:44.526Z,100.00
2022-10-08T22:59:14.544Z,100.00
2022-10-08T23:01:43.332Z,100.00
2022-10-08T23:04:11.967Z,100.00
2022-10-08T23:06:40.615Z,100.00
2022-10-08T23:09:13.459Z,100.00
2022-10-08T23:11:42.221Z,100.00
2022-10-08T23:14:13.466Z,100.00
2022-10-08T23:16:42.487Z,100.00
2022-10-08T23:19:13.120Z,100.00
2022-10-08T23:21:44.368Z,100.00
2022-10-08T23:24:13.151Z,100.00
2022-10-08T23:26:41.812Z,100.00
2022-10-08T23:32:06.910Z,100.00
2022-10-08T23:34:35.520Z,100.00
2022-10-08T23:37:04.677Z,100.00
2022-10-08T23:39:33.594Z,100.00
2022-10-08T23:42:02.187Z,100.00
2022-10-08T23:44:32.526Z,100.00
2022-10-08T23:47:01.361Z,100.00
2022-10-08T23:49:30.082Z,100.00
2022-10-08T23:51:58.764Z,100.00
2022-10-08T23:54:27.642Z,100.00
2022-10-08T23:56:56.332Z,100.00
2022-10-08T23:59:25.123Z,100.00
